| Record Date MM/DD/YYYY | Record Time HH:MM:SS | Record Julian Date NNN day of the year | Air Temperature Max (Degrees Fahrenheit F) | Time Max Air Temperature HH:MM:SS This is the time of max air temp for the prior hour interval listed for record [Time]. | Air Temperature Min (Degrees Fahrenheit F) | Time Min Air Temperature HH:MM:SS This is the time of min air temp for the prior hour interval listed for record [Time]. | Air Temperature Observed (Degrees Fahrenheit F) This is an instantaneous reading at the record [Time]. | Relative Humidity Max (Percent) | Time Max Relative Humidity HH:MM:SS This is the time of max relative humidity for the prior hour interval listed for record [Time]. | Relative Humidity Min (Percent) | Time Min Relative Humidity HH:MM:SS This is the time of min relative humidity for the prior hour interval listed for record [Time]. | Relative Humidity Observed (Percent) This is an instantaneous reading at the record [Time]. | Precipitation (Inches n.nn) rain fall that occurred during the prior hour interval listed for record [Time]. | Wind Speed (Miles Per Hour) Resultant Speed that occurred during the prior hour interval listed for record [Time]. | Wind Direction (Degrees) Resultant Direction that occurred during the prior hour interval listed for record [Time]. | Solar Radiation (Langley's) that occurred during the prior hour interval listed for record [Time]. | Soil Temperature Average at 2 inch depth (Degrees Fahrenheit F) that occurred during the prior hour interval listed for record [Time]. | Soil Temperature Observed at 2 inch depth (Degrees Fahrenheit F) This is an instantaneous reading at the record [Time]. | Soil Temperature Average at 4 inch depth (Degrees Fahrenheit F) that occurred during the prior hour interval listed for record [Time]. | Soil Temperature Observed at 4 inch depth (Degrees Fahrenheit F) This is an instantaneous reading at the record [Time]. |
|---|---|---|---|---|---|---|---|---|---|---|---|---|---|---|---|---|---|---|---|---|
| 04/29/2026 | 0:00:00 | 119 | 70 | 23:30:01 | 70 | 23:00:02 | 70 | 96 | 23:57:01 | 95 | 23:00:01 | 95.7 | 0.01 | 2.9 | 166 | 0 | 72 | 72 | 72 | 72 |
| 04/29/2026 | 1:00:00 | 119 | 70 | 0:58:03 | 70 | 0:27:03 | 70 | 96 | 0:51:04 | 96 | 0:00:00 | 95.9 | 0 | 4.1 | 206 | 0 | 72 | 72 | 72 | 72 |
| 04/29/2026 | 2:00:00 | 119 | 70 | 1:05:02 | 70 | 1:35:02 | 70 | 96 | 1:00:00 | 96 | 1:28:05 | 95.8 | 0 | 3.9 | 213 | 0 | 72 | 72 | 72 | 72 |
| 04/29/2026 | 3:00:00 | 119 | 70 | 2:42:01 | 70 | 2:00:02 | 70 | 96 | 2:02:05 | 95 | 3:00:00 | 95 | 0 | 3.9 | 240 | 0 | 71 | 71 | 72 | 72 |
| 04/29/2026 | 4:00:00 | 119 | 70 | 3:16:01 | 69 | 3:58:00 | 69 | 95 | 3:00:00 | 93 | 3:57:01 | 93.6 | 0 | 3.2 | 272 | 0 | 71 | 71 | 72 | 72 |
| 04/29/2026 | 5:00:00 | 119 | 69 | 4:00:00 | 66 | 4:59:03 | 66 | 94 | 5:00:00 | 93 | 4:22:03 | 94.3 | 0 | 1.9 | 323 | 0 | 71 | 71 | 72 | 71 |
| 04/29/2026 | 6:00:00 | 119 | 67 | 5:59:01 | 66 | 5:03:04 | 67 | 95 | 5:10:02 | 93 | 5:44:00 | 92.8 | 0 | 0.9 | 5 | 3 | 71 | 70 | 71 | 71 |
| 04/29/2026 | 7:00:00 | 119 | 68 | 6:18:05 | 67 | 6:00:03 | 67 | 93 | 6:05:01 | 90 | 6:21:01 | 91.2 | 0 | 1.2 | 343 | 12 | 70 | 70 | 71 | 71 |
| 04/29/2026 | 8:00:00 | 119 | 67 | 7:01:00 | 66 | 7:59:02 | 66 | 92 | 7:07:03 | 87 | 7:52:00 | 87.3 | 0 | 2.7 | 348 | 13 | 70 | 71 | 71 | 71 |
| 04/29/2026 | 9:00:00 | 119 | 66 | 8:00:01 | 65 | 8:22:03 | 66 | 89 | 8:54:00 | 87 | 8:01:02 | 87.8 | 0 | 2.5 | 4 | 11 | 71 | 71 | 71 | 71 |
| 04/29/2026 | 10:00:00 | 119 | 68 | 9:36:03 | 66 | 9:00:02 | 67 | 89 | 9:07:01 | 83 | 9:41:00 | 85.2 | 0 | 2.6 | 11 | 20 | 71 | 71 | 71 | 71 |
| 04/29/2026 | 11:00:00 | 119 | 67 | 10:05:03 | 65 | 10:57:02 | 65 | 88 | 10:51:05 | 83 | 10:14:00 | 86.8 | 0 | 2.3 | 1 | 10 | 72 | 72 | 72 | 72 |
| 04/29/2026 | 12:00:00 | 119 | 66 | 11:23:05 | 65 | 11:00:01 | 65 | 87 | 11:03:03 | 85 | 11:36:02 | 86.4 | 0 | 2.6 | 4 | 17 | 72 | 72 | 72 | 72 |
| 04/29/2026 | 13:00:00 | 119 | 66 | 12:56:00 | 65 | 12:45:02 | 66 | 88 | 12:48:04 | 84 | 12:59:01 | 84.4 | 0 | 4.2 | 13 | 31 | 72 | 72 | 72 | 72 |
| 04/29/2026 | 14:00:00 | 119 | 67 | 13:12:01 | 66 | 13:00:03 | 66 | 86 | 13:01:04 | 82 | 13:39:02 | 82.9 | 0 | 3.5 | 9 | 28 | 73 | 73 | 72 | 73 |
| 04/29/2026 | 15:00:00 | 119 | 68 | 14:41:02 | 66 | 14:05:03 | 67 | 84 | 14:03:05 | 78 | 14:59:03 | 78.41 | 0 | 4.3 | 12 | 30 | 73 | 74 | 73 | 73 |
| 04/29/2026 | 16:00:00 | 119 | 67 | 15:00:03 | 66 | 15:27:00 | 66 | 81 | 15:33:04 | 78 | 15:02:02 | 79.34 | 0 | 6.1 | 18 | 22 | 74 | 73 | 73 | 73 |
| 04/29/2026 | 17:00:00 | 119 | 66 | 16:00:01 | 65 | 16:57:05 | 65 | 81 | 16:12:03 | 77 | 16:52:04 | 78.32 | 0 | 4.9 | 17 | 13 | 73 | 73 | 73 | 73 |
| 04/29/2026 | 18:00:00 | 119 | 65 | 17:00:01 | 64 | 17:56:04 | 64 | 80 | 17:31:05 | 77 | 17:30:00 | 79.38 | 0 | 5.1 | 20 | 5 | 72 | 72 | 73 | 72 |
| 04/29/2026 | 19:00:00 | 119 | 64 | 18:00:00 | 63 | 18:50:01 | 63 | 84 | 18:51:01 | 79 | 18:03:00 | 83.4 | 0 | 3.4 | 25 | 1 | 71 | 71 | 72 | 71 |
| 04/29/2026 | 20:00:00 | 119 | 63 | 19:03:00 | 62 | 19:31:01 | 63 | 88 | 19:30:00 | 83 | 19:59:05 | 83.3 | 0 | 1.2 | 354 | 0 | 70 | 70 | 71 | 71 |
| 04/29/2026 | 21:00:00 | 119 | 64 | 20:17:02 | 63 | 20:59:00 | 63 | 84 | 20:35:04 | 81 | 20:16:02 | 83 | 0 | 1.6 | 7 | 0 | 70 | 70 | 70 | 70 |
| 04/29/2026 | 22:00:00 | 119 | 63 | 21:37:04 | 63 | 21:15:00 | 63 | 87 | 21:46:03 | 83 | 21:18:03 | 84.7 | 0 | 2.5 | 22 | 0 | 69 | 69 | 70 | 70 |
| 04/29/2026 | 23:00:00 | 119 | 63 | 22:19:01 | 61 | 22:59:03 | 61 | 86 | 22:10:04 | 80 | 22:45:03 | 83.9 | 0 | 3.9 | 24 | 0 | 69 | 69 | 69 | 69 |
| 04/30/2026 | 0:00:00 | 120 | 62 | 23:23:01 | 61 | 23:07:01 | 61 | 86 | 23:09:03 | 78 | 23:49:04 | 79.5 | 0 | 3.2 | 23 | 0 | 68 | 68 | 69 | 69 |
| 04/30/2026 | 1:00:00 | 120 | 62 | 0:14:00 | 59 | 0:59:03 | 59 | 82 | 0:54:00 | 78 | 0:12:03 | 81.2 | 0 | 2.1 | 19 | 0 | 68 | 67 | 69 | 68 |
| 04/30/2026 | 2:00:00 | 120 | 59 | 1:05:05 | 58 | 1:42:01 | 58 | 82 | 1:06:02 | 79 | 1:55:03 | 78.67 | 0 | 1.4 | 2 | 0 | 67 | 67 | 68 | 68 |
| 04/30/2026 | 3:00:00 | 120 | 58 | 2:05:04 | 56 | 2:51:05 | 57 | 84 | 2:53:04 | 78 | 2:01:03 | 81.8 | 0 | 0.9 | 349 | 0 | 66 | 66 | 67 | 67 |
| 04/30/2026 | 4:00:00 | 120 | 58 | 3:42:04 | 57 | 3:00:00 | 58 | 82 | 3:00:02 | 77 | 3:51:02 | 77.41 | 0 | 3.6 | 20 | 0 | 66 | 65 | 67 | 66 |
| 04/30/2026 | 5:00:00 | 120 | 58 | 4:01:04 | 56 | 4:59:03 | 56 | 79 | 4:21:01 | 76 | 4:48:01 | 77.41 | 0 | 4.7 | 21 | 0 | 65 | 65 | 66 | 66 |
| 04/30/2026 | 6:00:00 | 120 | 56 | 5:00:03 | 56 | 5:59:01 | 56 | 79 | 5:23:04 | 76 | 5:55:04 | 76.86 | 0 | 4.6 | 27 | 2 | 64 | 64 | 66 | 65 |
| 04/30/2026 | 7:00:00 | 120 | 58 | 6:59:00 | 55 | 6:12:05 | 58 | 77 | 6:11:02 | 70 | 6:56:04 | 70.45 | 0 | 5.1 | 32 | 13 | 64 | 63 | 65 | 65 |
| 04/30/2026 | 8:00:00 | 120 | 60 | 7:55:02 | 58 | 7:12:00 | 60 | 72 | 7:07:01 | 62 | 7:57:03 | 63.91 | 0 | 7.9 | 39 | 35 | 63 | 64 | 65 | 65 |
| 04/30/2026 | 9:00:00 | 120 | 62 | 8:50:03 | 60 | 8:17:04 | 61 | 65 | 8:03:02 | 55 | 8:59:02 | 57.33 | 0 | 9.3 | 39 | 53 | 64 | 65 | 65 | 65 |
| 04/30/2026 | 10:00:00 | 120 | 64 | 10:00:00 | 61 | 9:06:01 | 64 | 59 | 9:11:05 | 51 | 9:56:00 | 54.87 | 0 | 8.6 | 41 | 56 | 65 | 66 | 66 | 66 |
| 04/30/2026 | 11:00:00 | 120 | 65 | 10:23:05 | 63 | 10:33:02 | 65 | 58 | 10:36:05 | 50 | 10:13:05 | 52.45 | 0 | 6.8 | 36 | 64 | 67 | 68 | 67 | 68 |
| 04/30/2026 | 12:00:00 | 120 | 67 | 11:46:00 | 64 | 11:03:01 | 66 | 58 | 11:29:00 | 48 | 11:37:00 | 52.48 | 0 | 7.0 | 33 | 68 | 69 | 71 | 68 | 69 |
| 04/30/2026 | 13:00:00 | 120 | 68 | 12:58:05 | 65 | 12:03:05 | 67 | 54 | 12:30:02 | 47 | 12:52:03 | 49.25 | 0 | 7.2 | 34 | 63 | 72 | 72 | 70 | 71 |
| 04/30/2026 | 14:00:00 | 120 | 68 | 13:08:01 | 66 | 13:54:03 | 66 | 53 | 13:44:05 | 45 | 13:29:04 | 48.51 | 0 | 8.0 | 36 | 49 | 73 | 73 | 71 | 72 |
| 04/30/2026 | 15:00:00 | 120 | 66 | 14:39:03 | 65 | 14:59:01 | 65 | 56 | 14:51:02 | 48 | 14:01:00 | 52.87 | 0 | 4.9 | 23 | 24 | 73 | 73 | 72 | 72 |
| 04/30/2026 | 16:00:00 | 120 | 67 | 15:44:04 | 65 | 15:09:03 | 66 | 57 | 15:10:03 | 49 | 15:45:05 | 53.7 | 0 | 4.5 | 21 | 26 | 72 | 72 | 72 | 71 |
| 04/30/2026 | 17:00:00 | 120 | 66 | 16:00:02 | 64 | 16:59:02 | 64 | 60 | 16:35:05 | 52 | 16:02:03 | 58.39 | 0 | 3.4 | 18 | 14 | 72 | 71 | 71 | 71 |
| 04/30/2026 | 18:00:00 | 120 | 64 | 17:00:02 | 62 | 17:59:05 | 62 | 65 | 17:49:02 | 55 | 17:25:02 | 60.85 | 0 | 2.1 | 11 | 5 | 71 | 70 | 71 | 70 |
| 04/30/2026 | 19:00:00 | 120 | 62 | 18:02:00 | 60 | 18:57:04 | 60 | 67 | 18:28:01 | 59 | 18:14:05 | 64.34 | 0 | 2.4 | 15 | 1 | 70 | 69 | 70 | 70 |
| 04/30/2026 | 20:00:00 | 120 | 60 | 19:01:04 | 59 | 19:59:03 | 59 | 69 | 19:46:03 | 63 | 19:00:05 | 68.6 | 0 | 2.7 | 18 | 0 | 69 | 68 | 69 | 69 |
| 04/30/2026 | 21:00:00 | 120 | 59 | 20:00:00 | 57 | 20:58:00 | 57 | 74 | 20:57:03 | 68 | 20:01:00 | 72.99 | 0 | 2.1 | 22 | 0 | 67 | 67 | 68 | 68 |
| 04/30/2026 | 22:00:00 | 120 | 57 | 21:12:01 | 55 | 21:59:02 | 55 | 79 | 21:57:00 | 72 | 21:12:02 | 78.69 | 0 | 1.4 | 342 | 0 | 66 | 66 | 67 | 67 |
| 04/30/2026 | 23:00:00 | 120 | 55 | 22:59:01 | 54 | 22:13:03 | 55 | 80 | 22:19:04 | 75 | 22:59:02 | 74.97 | 0 | 1.1 | 296 | 0 | 65 | 65 | 66 | 66 |
| 05/01/2026 | 0:00:00 | 121 | 56 | 23:33:05 | 55 | 23:14:00 | 55 | 79 | 23:13:04 | 75 | 23:00:00 | 77.87 | 0 | 0.8 | 299 | 0 | 65 | 65 | 66 | 65 |
| 05/01/2026 | 1:00:00 | 121 | 55 | 0:00:02 | 55 | 0:54:02 | 55 | 82 | 0:53:02 | 78 | 0:00:04 | 81.3 | 0 | 1.3 | 296 | 0 | 64 | 64 | 65 | 65 |
| 05/01/2026 | 2:00:00 | 121 | 55 | 1:20:01 | 54 | 1:43:01 | 54 | 83 | 1:37:03 | 78 | 1:18:05 | 80.8 | 0 | 1.1 | 302 | 0 | 64 | 64 | 65 | 65 |
| 05/01/2026 | 3:00:00 | 121 | 55 | 2:53:02 | 53 | 2:08:00 | 55 | 86 | 2:35:05 | 81 | 2:00:00 | 83 | 0 | 0.9 | 302 | 0 | 63 | 63 | 64 | 64 |
| 05/01/2026 | 4:00:00 | 121 | 55 | 3:01:03 | 54 | 3:59:01 | 54 | 86 | 3:43:04 | 83 | 3:00:05 | 85.6 | 0 | 0.5 | 306 | 0 | 63 | 63 | 64 | 64 |
| 05/01/2026 | 5:00:00 | 121 | 54 | 4:39:05 | 54 | 4:47:02 | 54 | 87 | 4:54:01 | 85 | 4:13:05 | 86.1 | 0 | 0.7 | 308 | 0 | 63 | 63 | 64 | 64 |
| 05/01/2026 | 6:00:00 | 121 | 54 | 5:59:04 | 54 | 5:18:02 | 54 | 89 | 5:46:04 | 86 | 5:00:00 | 87.4 | 0 | 0.3 | 312 | 1 | 62 | 62 | 63 | 63 |
| 05/01/2026 | 7:00:00 | 121 | 58 | 7:00:00 | 54 | 6:00:00 | 58 | 87 | 6:00:00 | 75 | 6:52:02 | 76.33 | 0 | 0.7 | 326 | 8 | 62 | 62 | 63 | 63 |
| 05/01/2026 | 8:00:00 | 121 | 59 | 7:53:04 | 58 | 7:00:01 | 59 | 78 | 7:00:03 | 68 | 7:58:02 | 69.8 | 0 | 3.0 | 16 | 17 | 63 | 63 | 63 | 63 |
| 05/01/2026 | 9:00:00 | 121 | 61 | 9:00:00 | 59 | 8:01:01 | 61 | 71 | 8:55:04 | 67 | 8:43:01 | 68.38 | 0 | 4.2 | 25 | 22 | 63 | 64 | 64 | 64 |
| 05/01/2026 | 10:00:00 | 121 | 63 | 9:57:05 | 61 | 9:00:01 | 63 | 70 | 9:05:01 | 65 | 9:58:02 | 65.22 | 0 | 4.6 | 29 | 28 | 64 | 65 | 64 | 65 |
| 05/01/2026 | 11:00:00 | 121 | 64 | 10:47:03 | 63 | 10:00:05 | 63 | 68 | 10:29:05 | 61 | 10:52:00 | 62.65 | 0 | 3.7 | 17 | 31 | 65 | 66 | 65 | 65 |
| 05/01/2026 | 12:00:00 | 121 | 64 | 11:37:00 | 63 | 11:06:04 | 64 | 64 | 11:16:05 | 56 | 11:42:01 | 58.28 | 0 | 3.0 | 1 | 37 | 66 | 67 | 66 | 66 |
| 05/01/2026 | 13:00:00 | 121 | 65 | 12:20:00 | 64 | 12:00:00 | 65 | 61 | 12:03:02 | 50 | 12:58:03 | 52.57 | 0 | 4.0 | 15 | 43 | 67 | 68 | 67 | 67 |
| 05/01/2026 | 14:00:00 | 121 | 66 | 13:19:03 | 64 | 13:57:02 | 64 | 56 | 13:35:04 | 48 | 13:48:03 | 53.61 | 0 | 3.8 | 14 | 38 | 69 | 69 | 68 | 68 |
| 05/01/2026 | 15:00:00 | 121 | 66 | 14:19:02 | 64 | 14:03:05 | 65 | 57 | 14:11:04 | 49 | 14:56:05 | 53.81 | 0 | 3.3 | 7 | 40 | 69 | 70 | 69 | 69 |
| 05/01/2026 | 16:00:00 | 121 | 67 | 15:03:02 | 63 | 15:41:05 | 65 | 56 | 15:02:03 | 42 | 15:53:02 | 46.49 | 0 | 4.8 | 18 | 36 | 70 | 70 | 69 | 70 |
| 05/01/2026 | 17:00:00 | 121 | 66 | 16:26:04 | 64 | 16:58:01 | 64 | 49 | 16:53:04 | 42 | 16:15:02 | 46.41 | 0 | 4.2 | 19 | 27 | 70 | 70 | 70 | 70 |
| 05/01/2026 | 18:00:00 | 121 | 64 | 17:00:00 | 62 | 17:59:00 | 62 | 58 | 17:56:03 | 45 | 17:07:02 | 56.64 | 0 | 3.0 | 15 | 9 | 70 | 69 | 70 | 69 |
| 05/01/2026 | 19:00:00 | 121 | 62 | 18:01:05 | 59 | 18:57:00 | 59 | 66 | 18:52:03 | 52 | 18:00:05 | 63.82 | 0 | 0.9 | 301 | 2 | 69 | 68 | 69 | 68 |
| 05/01/2026 | 20:00:00 | 121 | 59 | 19:00:01 | 57 | 19:53:02 | 58 | 69 | 19:47:02 | 59 | 19:27:04 | 63.9 | 0 | 1.4 | 296 | 0 | 67 | 67 | 68 | 67 |
| 05/01/2026 | 21:00:00 | 121 | 59 | 20:54:05 | 57 | 20:17:02 | 59 | 66 | 20:10:04 | 50 | 20:54:04 | 51.18 | 0 | 2.2 | 3 | 0 | 66 | 66 | 67 | 66 |
| 05/01/2026 | 22:00:00 | 121 | 59 | 21:00:02 | 56 | 21:59:05 | 56 | 68 | 21:57:05 | 51 | 21:01:00 | 67.61 | 0 | 2.3 | 20 | 0 | 65 | 65 | 66 | 66 |
| 05/01/2026 | 23:00:00 | 121 | 57 | 22:20:03 | 56 | 22:43:00 | 56 | 69 | 22:16:04 | 62 | 22:54:03 | 65.18 | 0 | 0.4 | 347 | 0 | 64 | 64 | 65 | 65 |
| 05/02/2026 | 0:00:00 | 122 | 56 | 23:14:01 | 55 | 0:00:00 | 55 | 71 | 23:46:04 | 61 | 23:16:04 | 69.2 | 0 | 1.1 | 297 | 0 | 64 | 63 | 65 | 64 |
| 05/02/2026 | 1:00:00 | 122 | 55 | 0:00:02 | 53 | 1:00:00 | 53 | 72 | 0:09:00 | 68 | 0:14:05 | 71.5 | 0 | 1.3 | 300 | 0 | 63 | 63 | 64 | 64 |
| 05/02/2026 | 2:00:00 | 122 | 53 | 1:00:02 | 51 | 1:58:00 | 51 | 75 | 1:18:01 | 70 | 1:41:02 | 72.4 | 0 | 1.5 | 301 | 0 | 62 | 62 | 64 | 63 |
| 05/02/2026 | 3:00:00 | 122 | 51 | 2:01:03 | 50 | 3:00:00 | 50 | 78 | 3:00:00 | 72 | 2:09:02 | 78 | 0 | 2.2 | 303 | 0 | 62 | 61 | 63 | 62 |
| 05/02/2026 | 4:00:00 | 122 | 50 | 3:01:05 | 48 | 4:00:00 | 48 | 81 | 3:17:00 | 78 | 3:05:01 | 79.41 | 0 | 2.3 | 295 | 0 | 61 | 60 | 62 | 62 |
| 05/02/2026 | 5:00:00 | 122 | 48 | 4:18:05 | 47 | 4:51:01 | 48 | 85 | 4:58:03 | 79 | 4:18:05 | 85.1 | 0 | 3.3 | 287 | 0 | 60 | 59 | 61 | 61 |
| 05/02/2026 | 6:00:00 | 122 | 48 | 6:00:00 | 47 | 5:20:00 | 48 | 91 | 5:58:04 | 85 | 5:01:05 | 90.7 | 0 | 2.8 | 295 | 3 | 59 | 59 | 61 | 60 |
| 05/02/2026 | 7:00:00 | 122 | 57 | 6:59:01 | 48 | 6:00:00 | 57 | 91 | 6:00:04 | 70 | 6:59:05 | 69.74 | 0 | 2.3 | 291 | 19 | 59 | 59 | 60 | 60 |
| 05/02/2026 | 8:00:00 | 122 | 62 | 7:54:01 | 57 | 7:00:00 | 61 | 71 | 7:01:00 | 46 | 7:33:04 | 54.78 | 0 | 1.5 | 131 | 36 | 59 | 59 | 60 | 60 |
| 05/02/2026 | 9:00:00 | 122 | 65 | 8:56:02 | 61 | 8:00:00 | 64 | 57 | 8:31:04 | 45 | 8:55:04 | 48.57 | 0 | 1.4 | 179 | 53 | 60 | 62 | 61 | 61 |
| 05/02/2026 | 10:00:00 | 122 | 67 | 9:58:00 | 64 | 9:01:03 | 67 | 54 | 9:36:03 | 40 | 9:58:03 | 40.96 | 0 | 3.4 | 254 | 67 | 63 | 65 | 62 | 64 |
| 05/02/2026 | 11:00:00 | 122 | 68 | 10:58:03 | 66 | 10:10:03 | 67 | 49 | 10:16:02 | 38 | 10:28:00 | 39.65 | 0 | 4.9 | 278 | 76 | 66 | 68 | 65 | 66 |
| 05/02/2026 | 12:00:00 | 122 | 69 | 11:50:04 | 67 | 11:00:02 | 69 | 49 | 11:13:02 | 35 | 11:22:00 | 39.15 | 0 | 4.9 | 272 | 79 | 69 | 71 | 67 | 69 |
| 05/02/2026 | 13:00:00 | 122 | 71 | 12:22:00 | 68 | 12:47:01 | 70 | 48 | 12:55:02 | 34 | 12:59:04 | 37.53 | 0 | 4.6 | 281 | 65 | 72 | 73 | 70 | 71 |
| 05/02/2026 | 14:00:00 | 122 | 73 | 13:20:01 | 69 | 13:33:04 | 71 | 42 | 13:34:05 | 32 | 13:18:04 | 36.27 | 0 | 3.8 | 327 | 59 | 74 | 75 | 72 | 73 |
| 05/02/2026 | 15:00:00 | 122 | 73 | 14:59:02 | 70 | 14:45:05 | 73 | 43 | 14:38:03 | 33 | 14:03:02 | 36.92 | 0 | 5.1 | 298 | 60 | 75 | 75 | 73 | 74 |
| 05/02/2026 | 16:00:00 | 122 | 73 | 15:05:01 | 69 | 15:44:02 | 71 | 46 | 15:45:02 | 35 | 15:25:02 | 40.75 | 0 | 3.5 | 341 | 44 | 76 | 76 | 74 | 75 |
| 05/02/2026 | 17:00:00 | 122 | 72 | 16:50:03 | 70 | 16:32:02 | 72 | 44 | 16:11:02 | 34 | 16:51:00 | 37.43 | 0 | 2.1 | 350 | 28 | 75 | 75 | 75 | 75 |
| 05/02/2026 | 18:00:00 | 122 | 72 | 17:00:03 | 69 | 17:53:05 | 69 | 43 | 17:49:00 | 34 | 17:04:02 | 38.68 | 0 | 1.8 | 2 | 16 | 74 | 74 | 75 | 74 |
| 05/02/2026 | 19:00:00 | 122 | 69 | 18:00:03 | 62 | 18:58:05 | 62 | 64 | 18:57:04 | 38 | 18:04:05 | 59.89 | 0 | 0.9 | 318 | 3 | 73 | 72 | 74 | 73 |
| 05/02/2026 | 20:00:00 | 122 | 62 | 19:03:03 | 58 | 19:59:05 | 58 | 65 | 20:00:00 | 55 | 19:08:05 | 65.28 | 0 | 1.8 | 290 | 0 | 71 | 70 | 72 | 71 |
| 05/02/2026 | 21:00:00 | 122 | 58 | 20:00:00 | 56 | 20:59:04 | 56 | 71 | 20:59:03 | 64 | 20:14:04 | 70.4 | 0 | 2.1 | 297 | 0 | 69 | 68 | 70 | 69 |
| 05/02/2026 | 22:00:00 | 122 | 56 | 21:00:02 | 54 | 21:59:02 | 54 | 74 | 22:00:00 | 70 | 21:03:01 | 74.12 | 0 | 2.1 | 299 | 0 | 67 | 67 | 69 | 68 |
| 05/02/2026 | 23:00:00 | 122 | 55 | 22:09:05 | 52 | 22:59:05 | 52 | 76 | 23:00:00 | 70 | 22:05:02 | 76.32 | 0 | 2.0 | 300 | 0 | 66 | 65 | 67 | 67 |
| 05/03/2026 | 0:00:00 | 123 | 55 | 23:37:00 | 52 | 23:16:03 | 55 | 80 | 23:16:00 | 66 | 23:59:03 | 66.13 | 0 | 2.1 | 14 | 0 | 65 | 64 | 66 | 66 |
| 05/03/2026 | 1:00:00 | 123 | 55 | 0:01:04 | 53 | 0:59:02 | 53 | 70 | 0:54:02 | 66 | 0:01:03 | 69.24 | 0 | 1.9 | 30 | 0 | 64 | 63 | 65 | 65 |
| 05/03/2026 | 2:00:00 | 123 | 53 | 1:00:00 | 50 | 1:55:00 | 51 | 78 | 1:54:05 | 69 | 1:00:01 | 76.95 | 0 | 1.0 | 356 | 0 | 63 | 62 | 64 | 64 |
| 05/03/2026 | 3:00:00 | 123 | 51 | 2:06:01 | 48 | 2:59:03 | 48 | 84 | 2:55:05 | 76 | 2:06:04 | 83.8 | 0 | 0.6 | 316 | 0 | 62 | 61 | 63 | 63 |
| 05/03/2026 | 4:00:00 | 123 | 48 | 3:21:02 | 46 | 3:59:02 | 46 | 87 | 3:57:01 | 83 | 3:21:04 | 87 | 0 | 0.8 | 303 | 0 | 61 | 61 | 63 | 62 |
| 05/03/2026 | 5:00:00 | 123 | 46 | 4:00:01 | 45 | 4:55:02 | 45 | 91 | 4:58:01 | 87 | 4:00:01 | 90.4 | 0 | 0.6 | 292 | 0 | 60 | 60 | 62 | 61 |
| 05/03/2026 | 6:00:00 | 123 | 47 | 5:51:02 | 45 | 5:05:01 | 47 | 91 | 5:21:02 | 88 | 5:59:04 | 87.7 | 0 | 0.5 | 297 | 4 | 59 | 59 | 61 | 61 |
| 05/03/2026 | 7:00:00 | 123 | 55 | 6:59:02 | 47 | 6:00:01 | 55 | 89 | 6:09:01 | 75 | 7:00:00 | 74.57 | 0 | 2.5 | 174 | 19 | 59 | 59 | 61 | 60 |
| 05/03/2026 | 8:00:00 | 123 | 59 | 7:54:03 | 55 | 7:02:02 | 59 | 77 | 7:00:04 | 58 | 7:55:01 | 60.99 | 0 | 7.1 | 154 | 37 | 59 | 59 | 60 | 60 |
| 05/03/2026 | 9:00:00 | 123 | 63 | 8:53:05 | 59 | 8:00:02 | 63 | 65 | 8:02:05 | 49 | 8:54:03 | 54.59 | 0 | 7.7 | 151 | 53 | 60 | 61 | 61 | 61 |
| 05/03/2026 | 10:00:00 | 123 | 67 | 9:59:03 | 63 | 9:00:00 | 67 | 58 | 9:05:00 | 44 | 9:55:01 | 46.19 | 0 | 7.7 | 169 | 67 | 62 | 64 | 62 | 64 |
| 05/03/2026 | 11:00:00 | 123 | 70 | 10:51:00 | 66 | 10:05:02 | 70 | 54 | 10:32:02 | 41 | 10:59:03 | 45.37 | 0 | 7.6 | 184 | 77 | 65 | 67 | 65 | 66 |
| 05/03/2026 | 12:00:00 | 123 | 72 | 11:54:00 | 69 | 11:14:05 | 72 | 50 | 11:01:00 | 36 | 11:56:02 | 38.87 | 0 | 6.8 | 183 | 82 | 69 | 71 | 68 | 70 |
| 05/03/2026 | 13:00:00 | 123 | 74 | 12:33:03 | 71 | 12:09:04 | 73 | 42 | 12:47:05 | 32 | 12:33:04 | 35.95 | 0 | 5.2 | 224 | 81 | 72 | 74 | 71 | 73 |
| 05/03/2026 | 14:00:00 | 123 | 76 | 13:47:04 | 73 | 13:15:01 | 75 | 43 | 13:28:02 | 33 | 13:48:01 | 36.17 | 0 | 5.6 | 252 | 75 | 75 | 76 | 74 | 76 |
| 05/03/2026 | 15:00:00 | 123 | 76 | 14:22:04 | 75 | 14:02:00 | 76 | 41 | 14:40:00 | 32 | 14:58:05 | 34.36 | 0 | 5.9 | 252 | 65 | 77 | 78 | 77 | 77 |
| 05/03/2026 | 16:00:00 | 123 | 77 | 15:25:00 | 75 | 15:41:01 | 75 | 39 | 15:49:03 | 31 | 15:11:03 | 35.19 | 0 | 4.7 | 254 | 51 | 78 | 78 | 78 | 78 |
| 05/03/2026 | 17:00:00 | 123 | 76 | 16:51:01 | 75 | 16:00:01 | 76 | 40 | 16:35:00 | 33 | 16:10:02 | 36.85 | 0 | 3.9 | 252 | 34 | 78 | 78 | 79 | 79 |
| 05/03/2026 | 18:00:00 | 123 | 77 | 17:02:02 | 74 | 17:59:04 | 74 | 50 | 17:59:04 | 36 | 17:01:04 | 49.28 | 0 | 2.8 | 233 | 17 | 77 | 77 | 78 | 78 |
| 05/03/2026 | 19:00:00 | 123 | 74 | 18:00:00 | 66 | 19:00:00 | 66 | 66 | 18:57:05 | 48 | 18:00:02 | 65.58 | 0 | 1.7 | 211 | 3 | 76 | 75 | 77 | 76 |
| 05/03/2026 | 20:00:00 | 123 | 66 | 19:00:00 | 62 | 19:40:05 | 64 | 76 | 19:36:00 | 64 | 19:01:03 | 67.48 | 0 | 1.0 | 203 | 0 | 74 | 73 | 75 | 74 |
| 05/03/2026 | 21:00:00 | 123 | 64 | 20:02:00 | 61 | 21:00:00 | 61 | 73 | 21:00:00 | 66 | 20:02:00 | 72.97 | 0 | 1.5 | 211 | 0 | 72 | 71 | 73 | 72 |
| 05/03/2026 | 22:00:00 | 123 | 61 | 21:03:03 | 60 | 21:56:03 | 60 | 73 | 21:12:02 | 71 | 21:31:01 | 72.5 | 0 | 2.0 | 209 | 0 | 70 | 69 | 72 | 71 |
| 05/03/2026 | 23:00:00 | 123 | 64 | 22:45:03 | 60 | 22:00:01 | 64 | 73 | 22:00:01 | 61 | 22:45:02 | 62.47 | 0 | 4.4 | 214 | 0 | 69 | 68 | 70 | 70 |
| 05/04/2026 | 0:00:00 | 124 | 64 | 23:04:01 | 62 | 23:36:00 | 63 | 68 | 23:36:01 | 61 | 23:03:05 | 65.39 | 0 | 4.8 | 214 | 0 | 68 | 67 | 69 | 69 |
| 05/04/2026 | 1:00:00 | 124 | 64 | 0:14:01 | 61 | 0:47:03 | 62 | 71 | 0:49:00 | 65 | 0:14:00 | 69.92 | 0 | 5.3 | 213 | 0 | 67 | 66 | 68 | 68 |
| 05/04/2026 | 2:00:00 | 124 | 63 | 1:15:00 | 61 | 1:50:03 | 61 | 75 | 1:50:00 | 69 | 1:14:04 | 74.23 | 0 | 5.0 | 210 | 0 | 66 | 66 | 67 | 67 |
| 05/04/2026 | 3:00:00 | 124 | 61 | 2:13:02 | 58 | 2:59:04 | 58 | 81 | 2:59:05 | 73 | 2:13:02 | 81.1 | 0 | 4.0 | 205 | 0 | 65 | 65 | 67 | 67 |
| 05/04/2026 | 4:00:00 | 124 | 58 | 3:00:01 | 56 | 3:59:05 | 56 | 86 | 4:00:00 | 81 | 3:00:01 | 86.3 | 0 | 3.1 | 204 | 0 | 65 | 64 | 66 | 66 |
| 05/04/2026 | 5:00:00 | 124 | 57 | 4:57:00 | 55 | 4:13:00 | 57 | 89 | 4:18:03 | 86 | 4:59:03 | 85.6 | 0 | 3.2 | 196 | 0 | 64 | 64 | 66 | 65 |
| 05/04/2026 | 6:00:00 | 124 | 57 | 6:00:00 | 55 | 5:36:00 | 57 | 89 | 5:59:02 | 86 | 5:01:04 | 89.3 | 0 | 1.6 | 205 | 3 | 64 | 63 | 65 | 65 |
| 05/04/2026 | 7:00:00 | 124 | 63 | 6:59:04 | 57 | 6:00:00 | 63 | 89 | 6:00:00 | 76 | 6:56:05 | 76.22 | 0 | 4.2 | 192 | 16 | 63 | 63 | 65 | 65 |
| 05/04/2026 | 8:00:00 | 124 | 68 | 7:59:02 | 63 | 7:21:00 | 68 | 76 | 7:00:00 | 66 | 7:59:01 | 66.97 | 0 | 6.8 | 208 | 35 | 64 | 64 | 65 | 65 |
| 05/04/2026 | 9:00:00 | 124 | 73 | 8:59:03 | 67 | 8:00:01 | 73 | 69 | 8:00:05 | 54 | 8:59:01 | 54.25 | 0 | 6.5 | 221 | 54 | 65 | 66 | 65 | 66 |
| 05/04/2026 | 10:00:00 | 124 | 77 | 9:54:00 | 73 | 9:01:05 | 77 | 57 | 9:07:04 | 43 | 9:56:05 | 44.14 | 0 | 7.6 | 230 | 65 | 67 | 69 | 66 | 67 |
| 05/04/2026 | 11:00:00 | 124 | 79 | 10:58:05 | 76 | 10:04:03 | 78 | 46 | 10:05:04 | 38 | 10:16:02 | 38.88 | 0 | 10.6 | 225 | 77 | 70 | 72 | 69 | 70 |
| 05/04/2026 | 12:00:00 | 124 | 79 | 11:44:04 | 77 | 11:09:01 | 78 | 42 | 11:17:00 | 37 | 11:27:02 | 37.94 | 0 | 10.3 | 228 | 81 | 73 | 75 | 71 | 73 |
| 05/04/2026 | 13:00:00 | 124 | 80 | 12:55:04 | 78 | 12:25:04 | 80 | 44 | 12:51:01 | 35 | 12:57:01 | 38.6 | 0 | 10.8 | 217 | 80 | 76 | 77 | 74 | 75 |
| 05/04/2026 | 14:00:00 | 124 | 81 | 13:58:02 | 79 | 13:35:03 | 81 | 44 | 13:27:03 | 38 | 13:09:03 | 40.45 | 0 | 12.1 | 208 | 74 | 79 | 80 | 76 | 77 |
| 05/04/2026 | 15:00:00 | 124 | 81 | 14:00:02 | 79 | 14:32:05 | 79 | 43 | 14:18:01 | 36 | 14:56:02 | 37.59 | 0 | 11.9 | 215 | 64 | 80 | 81 | 78 | 79 |
| 05/04/2026 | 16:00:00 | 124 | 80 | 15:20:05 | 78 | 15:54:04 | 79 | 42 | 15:59:01 | 36 | 15:27:02 | 40.61 | 0 | 11.3 | 222 | 49 | 81 | 81 | 79 | 79 |
| 05/04/2026 | 17:00:00 | 124 | 79 | 16:00:04 | 77 | 16:59:03 | 77 | 43 | 16:32:00 | 38 | 16:01:03 | 41.4 | 0 | 10.7 | 216 | 29 | 80 | 80 | 79 | 79 |
| 05/04/2026 | 18:00:00 | 124 | 77 | 17:00:01 | 74 | 17:59:04 | 74 | 48 | 17:58:01 | 41 | 17:04:01 | 46.95 | 0 | 9.4 | 213 | 13 | 79 | 78 | 79 | 78 |
| 05/04/2026 | 19:00:00 | 124 | 74 | 18:00:00 | 68 | 18:59:01 | 68 | 61 | 18:59:01 | 47 | 18:00:01 | 61.07 | 0 | 5.0 | 204 | 2 | 77 | 76 | 78 | 77 |
| 05/04/2026 | 20:00:00 | 124 | 69 | 19:17:04 | 65 | 19:59:01 | 65 | 69 | 19:58:03 | 58 | 19:16:03 | 68.05 | 0 | 3.5 | 188 | 0 | 75 | 74 | 76 | 75 |
| 05/04/2026 | 21:00:00 | 124 | 66 | 20:06:01 | 63 | 21:00:00 | 63 | 74 | 20:58:05 | 67 | 20:04:03 | 74.21 | 0 | 2.0 | 178 | 0 | 73 | 72 | 74 | 74 |
| 05/04/2026 | 22:00:00 | 124 | 64 | 21:59:05 | 63 | 21:03:01 | 64 | 75 | 21:00:02 | 71 | 21:15:01 | 71.3 | 0 | 2.4 | 182 | 0 | 72 | 71 | 73 | 72 |
| 05/04/2026 | 23:00:00 | 124 | 66 | 22:27:03 | 64 | 22:06:01 | 66 | 72 | 22:03:02 | 65 | 22:57:01 | 65.19 | 0 | 4.7 | 185 | 0 | 71 | 70 | 72 | 71 |
| 05/05/2026 | 0:00:00 | 125 | 66 | 23:22:02 | 65 | 23:58:02 | 65 | 67 | 23:57:05 | 64 | 23:22:00 | 66.16 | 0 | 5.3 | 190 | 0 | 70 | 69 | 71 | 70 |
| 05/05/2026 | 1:00:00 | 125 | 65 | 0:06:01 | 65 | 0:40:04 | 65 | 69 | 0:45:04 | 66 | 0:05:02 | 68.21 | 0 | 4.8 | 198 | 0 | 69 | 68 | 70 | 70 |
| 05/05/2026 | 2:00:00 | 125 | 66 | 1:46:05 | 65 | 1:02:03 | 66 | 69 | 1:17:01 | 67 | 1:46:03 | 67.86 | 0 | 6.7 | 188 | 0 | 68 | 68 | 69 | 69 |
| 05/05/2026 | 3:00:00 | 125 | 66 | 2:00:03 | 65 | 2:25:02 | 65 | 71 | 2:44:00 | 68 | 2:00:00 | 70.63 | 0 | 7.6 | 191 | 0 | 68 | 67 | 69 | 69 |
| 05/05/2026 | 4:00:00 | 125 | 66 | 3:21:02 | 64 | 3:52:03 | 65 | 73 | 3:52:02 | 70 | 3:21:00 | 71.88 | 0 | 8.9 | 192 | 0 | 67 | 67 | 69 | 68 |
| 05/05/2026 | 5:00:00 | 125 | 65 | 4:00:01 | 63 | 4:59:00 | 63 | 76 | 4:58:03 | 72 | 4:00:01 | 75.92 | 0 | 8.0 | 188 | 0 | 67 | 67 | 68 | 68 |
| 05/05/2026 | 6:00:00 | 125 | 63 | 5:40:04 | 63 | 5:13:03 | 63 | 78 | 5:58:05 | 76 | 5:01:02 | 78.04 | 0 | 5.4 | 180 | 0 | 66 | 66 | 68 | 68 |
| 05/05/2026 | 7:00:00 | 125 | 64 | 6:58:02 | 63 | 6:04:05 | 64 | 78 | 6:04:03 | 76 | 6:56:02 | 76.64 | 0 | 5.7 | 160 | 5 | 66 | 66 | 67 | 67 |
| 05/05/2026 | 8:00:00 | 125 | 64 | 7:00:04 | 63 | 7:47:03 | 64 | 83 | 7:51:05 | 76 | 7:00:05 | 81.6 | 0 | 7.4 | 162 | 7 | 67 | 67 | 67 | 68 |
| 05/05/2026 | 9:00:00 | 125 | 68 | 8:51:02 | 64 | 8:00:01 | 66 | 82 | 8:02:05 | 76 | 8:52:02 | 79.33 | 0 | 9.9 | 173 | 16 | 67 | 67 | 68 | 68 |
| 05/05/2026 | 10:00:00 | 125 | 67 | 9:15:03 | 65 | 9:29:02 | 66 | 85 | 9:42:00 | 79 | 9:01:01 | 83.9 | 0.01 | 8.3 | 189 | 9 | 67 | 67 | 68 | 68 |
| 05/05/2026 | 11:00:00 | 125 | 69 | 10:58:02 | 66 | 10:00:01 | 69 | 84 | 10:10:00 | 79 | 10:56:02 | 79.25 | 0 | 8.4 | 175 | 10 | 67 | 68 | 68 | 68 |
| 05/05/2026 | 12:00:00 | 125 | 70 | 11:33:00 | 69 | 11:00:01 | 69 | 82 | 12:00:00 | 77 | 11:29:05 | 81.8 | 0 | 9.6 | 180 | 7 | 68 | 68 | 68 | 68 |
| 05/05/2026 | 13:00:00 | 125 | 69 | 12:00:01 | 68 | 12:13:01 | 69 | 87 | 12:16:02 | 82 | 12:00:00 | 86.1 | 0.01 | 9.1 | 194 | 8 | 68 | 68 | 68 | 68 |
| 05/05/2026 | 14:00:00 | 125 | 71 | 13:57:03 | 69 | 13:00:01 | 71 | 87 | 13:06:05 | 81 | 13:57:00 | 81.6 | 0 | 9.1 | 181 | 9 | 68 | 68 | 68 | 68 |
| 05/05/2026 | 15:00:00 | 125 | 73 | 14:47:03 | 71 | 14:00:00 | 73 | 82 | 14:02:01 | 77 | 14:47:01 | 78.47 | 0 | 10.5 | 179 | 11 | 68 | 69 | 68 | 69 |
| 05/05/2026 | 16:00:00 | 125 | 73 | 15:24:04 | 73 | 15:47:05 | 73 | 80 | 15:55:03 | 77 | 15:24:05 | 79.56 | 0 | 10.9 | 186 | 6 | 69 | 69 | 69 | 69 |
| 05/05/2026 | 17:00:00 | 125 | 73 | 16:22:01 | 72 | 16:52:05 | 73 | 81 | 16:55:00 | 79 | 16:00:01 | 81 | 0 | 10.3 | 188 | 4 | 69 | 69 | 69 | 69 |
| 05/05/2026 | 18:00:00 | 125 | 73 | 17:28:02 | 72 | 17:57:01 | 72 | 82 | 17:57:00 | 80 | 17:27:05 | 81.3 | 0 | 9.6 | 183 | 4 | 69 | 69 | 69 | 69 |
| 05/05/2026 | 19:00:00 | 125 | 72 | 18:47:02 | 72 | 18:21:04 | 72 | 82 | 18:20:05 | 80 | 18:57:04 | 80.7 | 0 | 6.7 | 172 | 1 | 69 | 69 | 69 | 69 |
| 05/05/2026 | 20:00:00 | 125 | 73 | 19:57:02 | 72 | 19:42:05 | 72 | 81 | 19:42:04 | 80 | 19:57:00 | 79.85 | 0 | 5.8 | 170 | 0 | 69 | 69 | 69 | 69 |
| 05/05/2026 | 21:00:00 | 125 | 73 | 20:59:05 | 72 | 20:13:02 | 73 | 81 | 20:48:00 | 80 | 20:00:00 | 80.5 | 0 | 5.9 | 177 | 0 | 69 | 69 | 69 | 69 |
| 05/05/2026 | 22:00:00 | 125 | 73 | 21:19:05 | 72 | 21:38:00 | 73 | 82 | 21:51:04 | 80 | 21:00:01 | 81.9 | 0 | 6.1 | 182 | 0 | 68 | 68 | 69 | 69 |
| 05/05/2026 | 23:00:00 | 125 | 73 | 23:00:00 | 72 | 22:22:01 | 73 | 84 | 22:43:03 | 82 | 22:00:05 | 83.2 | 0 | 6.4 | 185 | 0 | 68 | 68 | 68 | 68 |
| 05/06/2026 | 0:00:00 | 126 | 74 | 23:34:04 | 73 | 23:03:02 | 74 | 84 | 23:03:05 | 82 | 23:17:01 | 83.1 | 0 | 10.0 | 201 | 0 | 68 | 68 | 68 | 68 |
| 05/06/2026 | 1:00:00 | 126 | 74 | 0:54:03 | 74 | 0:08:05 | 74 | 84 | 0:59:04 | 83 | 0:02:03 | 84.3 | 0 | 9.9 | 203 | 0 | 68 | 69 | 68 | 68 |
| 05/06/2026 | 2:00:00 | 126 | 74 | 1:45:02 | 58 | 2:00:00 | 58 | 85 | 1:59:02 | 73 | 1:46:04 | 85.2 | 0 | 8.3 | 220 | 0 | 69 | 69 | 69 | 69 |
| 05/06/2026 | 3:00:00 | 126 | 58 | 2:00:00 | 54 | 2:33:04 | 55 | 93 | 2:58:02 | 85 | 2:00:00 | 92.7 | 0.02 | 4.2 | 8 | 0 | 68 | 68 | 69 | 68 |
| 05/06/2026 | 4:00:00 | 126 | 55 | 3:04:00 | 54 | 3:49:04 | 54 | 94 | 3:54:01 | 93 | 3:00:03 | 94 | 0.09 | 3.7 | 14 | 0 | 67 | 67 | 68 | 67 |
| 05/06/2026 | 5:00:00 | 126 | 54 | 4:00:00 | 52 | 4:25:02 | 53 | 95 | 4:58:05 | 94 | 4:18:05 | 94.8 | 0.35 | 3.7 | 7 | 0 | 66 | 65 | 67 | 66 |
| 05/06/2026 | 6:00:00 | 126 | 53 | 5:53:03 | 52 | 5:14:00 | 53 | 95 | 5:00:05 | 93 | 6:00:00 | 93.3 | 0 | 3.5 | 15 | 1 | 64 | 64 | 66 | 65 |
| 05/06/2026 | 7:00:00 | 126 | 54 | 6:52:02 | 53 | 6:00:00 | 53 | 94 | 6:50:04 | 93 | 6:16:01 | 93.5 | 0.01 | 2.8 | 7 | 3 | 64 | 63 | 65 | 65 |
| 05/06/2026 | 8:00:00 | 126 | 54 | 7:08:04 | 53 | 7:59:05 | 53 | 94 | 7:08:02 | 93 | 7:51:01 | 93.2 | 0.04 | 2.4 | 1 | 6 | 63 | 63 | 65 | 65 |
| 05/06/2026 | 9:00:00 | 126 | 54 | 8:50:03 | 53 | 8:26:03 | 53 | 94 | 8:11:01 | 93 | 8:41:05 | 93 | 0 | 3.2 | 8 | 7 | 63 | 63 | 65 | 64 |
| 05/06/2026 | 10:00:00 | 126 | 54 | 9:03:03 | 52 | 9:54:05 | 52 | 94 | 9:03:01 | 92 | 9:49:05 | 92.6 | 0 | 2.8 | 358 | 10 | 63 | 63 | 64 | 64 |
| 05/06/2026 | 11:00:00 | 126 | 53 | 10:20:04 | 52 | 10:36:04 | 53 | 94 | 10:55:03 | 92 | 10:14:04 | 92.9 | 0.01 | 2.6 | 1 | 11 | 64 | 64 | 64 | 64 |
| 05/06/2026 | 12:00:00 | 126 | 55 | 11:52:01 | 53 | 11:00:02 | 54 | 93 | 11:06:02 | 91 | 11:54:05 | 91 | 0.01 | 4.0 | 13 | 16 | 64 | 64 | 64 | 64 |
| 05/06/2026 | 13:00:00 | 126 | 55 | 12:55:01 | 54 | 12:18:03 | 55 | 91 | 12:02:03 | 88 | 12:58:05 | 88.4 | 0 | 3.4 | 7 | 19 | 64 | 64 | 65 | 65 |
| Average | 64.25 | 62.09 | 63.12 | 73.57 | 66.73 | 70.04 | 0 | 4.35 | 17.1 | 68.05 | 68.08 | 68.51 | 68.47 | |||||||
| Total | 0.56 |